Relevés horaires Beauvechain (Belgique)


Relevés horaires à Beauvechain - Dimanche 14 Juin 2020
Heure UTC1 Température [°C] Vent [km/h] Hum. [%] Pres.4 [hPa] Visi. [Km] Nébu. [octa] Préc.5 [mm] Cond.
2m. Res. Ros. Dir.2 Vit. Moy. Raf.3
23:00 17.2 17.2 14.0 NNO 1.9 -- 3.7 81 1016.7(0.5/3h) 20 -- -- --
22:00 17.7 17.7 13.6 NNO 1.9 -- 1.9 77 1016.6(0.6/3h) 20 -- -- --
21:00 17.8 17.8 13.7 NNO 1.9 -- 7.4 77 1016.5(0.8/3h) 20 -- -- --
20:00 18.7 18.7 13.7 N 3.7 -- 7.4 73 1016.2(0.9/3h) 20 -- -- --
19:00 19.6 19.6 12.7 O 5.6 -- 7.4 64 1015.8(0.9/3h) 20 -- -- --
18:00 20.7 20.7 12.1 O 5.6 -- 14.8 58 1015.5(0.6/3h) 20 -- -- --
17:00 21.1 21.1 12.3 O 5.6 -- 11.1 57 1015.1(0.2/3h) 20 -- -- --
16:00 22.0 22.0 12.0 O 7.4 -- 13.0 53 1014.7(-0.4/3h) 20 -- -- --
15:00 22.4 22.4 11.8 ONO 5.6 -- 14.8 51 1014.7(-0.4/3h) 20 -- -- --
14:00 21.9 21.9 12.0 O 5.6 -- 14.8 53 1014.8(-0.5/3h) 20 -- -- --
13:00 22.0 22.0 12.3 O 7.4 -- 13.0 54 1015.2(0.0/3h) 20 -- -- --
12:00 21.4 21.4 12.4 OSO 7.4 -- 13.0 56 1015.2(0.1/3h) 20 -- -- --
11:00 20.9 20.9 12.7 OSO 7.4 -- 13.0 59 1015.3(0.1/3h) 20 -- -- --
10:00 19.9 19.9 12.1 OSO 9.3 -- 13.0 61 1015.3(0.7/3h) 20 -- -- --
09:00 19.1 19.1 12.5 OSO 9.3 -- 13.0 66 1015.2(0.9/3h) 20 -- -- --
08:00 17.9 17.9 12.8 OSO 5.6 -- 11.1 72 1015.3(1.3/3h) 20 -- -- --
07:00 16.9 16.9 12.3 OSO 7.4 -- 13.0 74 1014.7(0.9/3h) 20 -- -- --
06:00 15.4 15.4 11.5 OSO 7.4 -- 11.1 78 1014.5(1.0/3h) 20 -- trace/12h
--
05:00 15.2 15.2 11.3 OSO 5.6 -- 11.1 78 1014.1(0.8/3h) 20 -- -- --
04:00 15.2 14.9 11.3 SO 9.3 -- 11.1 78 1013.8(0.6/3h) 20 -- -- --
03:00 15.6 15.6 11.4 OSO 7.4 -- 11.1 76 1013.3(0.2/3h) 20 -- -- --
02:00 16.5 16.5 11.8 SO 7.4 -- 9.3 74 1013.2(0.4/3h) 20 -- -- --
01:00 16.8 16.8 13.0 SSO 5.6 -- 9.3 78 1013.1(0.1/3h) 20 -- -- --
00:00 18.2 18.2 13.7 SSO 5.6 -- 9.3 75 1013(0.3/3h) 20 -- trace/6h
NA

1 Coordinated Universal Time. Actuellement il est 21:00 locale et 19:00 UTC.

2 Le vent souffle depuis la direction indiquée vers la direction oposée.

3 Les rafales max. sont disponible 40 min après l'heure du relevé.

4 Pour les stations d'altitude (plus de 600m) le géopotentiel du niveau le plus proche de la pression obligatoire est indiqué.

5 Les stations disposant d'un diffuseur peuvent indiquer "trace". Cela signifie que des précipitations ont touchés le sol mais que la quantité est inférieure à 0.1 mm.

Récapitulatif de la journée
Température [°C] Vent [km/h] Ensoleillement4 [h] Precipitations totale5 [mm] Pression [Hpa]
Min1 Max.2 Moy.3 Max. Min Max.
15.1 23.0 0 14.8 0 h 0 min 0 1013.0 1016.7

1 Température minimale relevée entre 18:00 UTC la veille et 18:00 UTC le jour donné.

2 Température maximale relevée entre 06:00 UTC le jour donné et 06:00 UTC le lendemain.

3 Vent moyen de la journée basé sur les relevés horaires.

4 Ensoleillement en heures relevé entre 06:00 UTC la veille et 06:00 UTC le jour donné.

5 Précipitations totales tombées entre 06:00 UTC la jour donné et 06:00 UTC le lendemain.

Graphiques horaires